createdAt,value
2018-09-15T10:46:09.491Z,20.50
2018-09-15T10:48:38.009Z,19.50
2018-09-15T10:51:06.576Z,18.40
2018-09-15T10:53:35.108Z,17.80
2018-09-15T10:56:03.846Z,17.90
2018-09-15T10:58:32.479Z,17.50
2018-09-15T11:01:01.116Z,17.30
2018-09-15T11:03:29.681Z,16.90
2018-09-15T11:05:58.260Z,16.40
2018-09-15T11:08:26.812Z,16.00
2018-09-15T11:10:56.075Z,15.80
2018-09-15T11:13:24.702Z,15.70
2018-09-15T11:15:53.278Z,15.60
2018-09-15T11:18:21.842Z,15.70
2018-09-15T11:20:50.449Z,15.60
2018-09-15T11:23:18.986Z,15.80
2018-09-15T11:25:47.545Z,15.90
2018-09-15T11:28:16.085Z,16.10
2018-09-15T11:30:44.696Z,16.20
2018-09-15T11:33:13.198Z,16.20
2018-09-15T11:35:41.897Z,16.00
2018-09-15T11:38:10.460Z,15.80
2018-09-15T11:40:39.020Z,15.50
2018-09-15T11:43:07.576Z,15.40
2018-09-15T11:45:36.341Z,15.30
2018-09-15T11:48:04.973Z,15.20
2018-09-15T11:50:33.624Z,15.20
2018-09-15T11:53:02.385Z,15.50
2018-09-15T11:55:30.944Z,15.80
2018-09-15T11:57:59.619Z,16.10
2018-09-15T12:00:30.251Z,16.20
2018-09-15T12:02:59.016Z,16.20
2018-09-15T12:05:27.643Z,16.00
2018-09-15T12:07:56.305Z,16.00
2018-09-15T12:10:24.793Z,16.00
2018-09-15T12:12:53.387Z,15.80
2018-09-15T12:15:21.932Z,15.70
2018-09-15T12:17:50.490Z,15.70
2018-09-15T12:20:19.245Z,15.70
2018-09-15T12:22:47.796Z,15.90
2018-09-15T12:25:16.356Z,16.10
2018-09-15T12:27:44.965Z,16.10
2018-09-15T12:30:13.489Z,16.10
2018-09-15T12:32:42.033Z,15.80
2018-09-15T12:35:10.691Z,15.70
2018-09-15T12:37:39.249Z,15.70
2018-09-15T12:40:07.912Z,15.80
2018-09-15T12:42:36.476Z,15.70
2018-09-15T12:45:05.178Z,15.60
2018-09-15T12:47:33.714Z,15.50
2018-09-15T12:50:02.271Z,15.50
2018-09-15T12:52:30.835Z,15.60
2018-09-15T12:54:59.451Z,15.60
2018-09-15T12:57:28.099Z,15.50
2018-09-15T12:59:56.664Z,15.60
2018-09-15T13:02:25.248Z,15.70
2018-09-15T13:04:53.785Z,15.80
2018-09-15T13:07:22.338Z,15.80
2018-09-15T13:09:50.874Z,15.90
2018-09-15T13:12:19.487Z,15.70
2018-09-15T13:14:48.016Z,15.70
2018-09-15T13:17:16.622Z,15.70
2018-09-15T13:19:45.204Z,15.70
2018-09-15T13:22:13.738Z,15.80
2018-09-15T13:24:42.336Z,16.00
2018-09-15T13:27:10.910Z,16.10
2018-09-15T13:29:39.554Z,16.00
2018-09-15T13:32:08.076Z,16.10
2018-09-15T13:34:36.608Z,16.00
2018-09-15T13:37:05.429Z,16.10
2018-09-15T13:39:34.015Z,16.10
2018-09-15T13:42:02.589Z,16.10
2018-09-15T13:44:31.200Z,16.10
2018-09-15T13:47:00.356Z,16.00
2018-09-15T13:49:28.871Z,15.90
2018-09-15T13:51:57.407Z,15.80
2018-09-15T13:54:25.962Z,15.70
2018-09-15T13:56:54.492Z,15.70
2018-09-15T13:59:23.062Z,15.80
2018-09-15T14:01:51.582Z,15.70
2018-09-15T14:04:20.137Z,15.70
2018-09-15T14:06:48.722Z,15.60
2018-09-15T14:09:23.810Z,15.50
2018-09-15T14:11:52.339Z,15.50
2018-09-15T14:14:21.109Z,15.60
2018-09-15T14:16:49.694Z,15.50
2018-09-15T14:19:18.240Z,15.50
2018-09-15T14:21:46.763Z,15.50
2018-09-15T14:24:15.307Z,15.60
2018-09-15T14:26:43.912Z,15.50
2018-09-15T14:29:12.473Z,15.60
2018-09-15T14:31:41.078Z,15.50
2018-09-15T14:34:09.638Z,15.50
2018-09-15T14:36:38.157Z,15.50
2018-09-15T14:39:08.412Z,15.50
2018-09-15T14:41:37.057Z,15.50
2018-09-15T14:44:05.575Z,15.50
2018-09-15T14:46:34.133Z,15.50
2018-09-15T14:49:02.767Z,15.50
2018-09-15T14:51:31.320Z,15.50
2018-09-15T14:54:00.017Z,15.60
2018-09-15T14:56:28.604Z,15.60
2018-09-15T14:58:57.908Z,15.60
2018-09-15T15:01:26.560Z,15.50
2018-09-15T15:03:55.181Z,15.50
2018-09-15T15:06:23.820Z,15.60
2018-09-15T15:08:52.998Z,15.50
2018-09-15T15:11:21.618Z,15.60
2018-09-15T15:13:51.105Z,15.60
2018-09-15T15:16:19.807Z,15.50
2018-09-15T15:18:48.334Z,15.50
2018-09-15T15:21:17.897Z,15.50
2018-09-15T15:23:46.528Z,15.50
2018-09-15T15:26:15.261Z,15.40
2018-09-15T15:28:43.751Z,15.40
2018-09-15T15:31:12.319Z,15.40
2018-09-15T15:33:40.902Z,15.30
2018-09-15T15:36:09.524Z,15.30
2018-09-15T15:38:38.139Z,15.30
2018-09-15T15:41:06.790Z,15.30
2018-09-15T15:43:35.479Z,15.30
2018-09-15T15:46:03.992Z,15.20
2018-09-15T15:48:32.904Z,15.20
2018-09-15T15:51:01.931Z,15.20
2018-09-15T15:53:30.523Z,15.20
2018-09-15T15:55:59.084Z,15.10
2018-09-15T15:58:27.730Z,15.10
2018-09-15T16:00:56.212Z,15.10
2018-09-15T16:03:24.813Z,15.10
2018-09-15T16:05:53.399Z,15.10
2018-09-15T16:08:21.974Z,15.00
2018-09-15T16:10:50.635Z,14.90
2018-09-15T16:13:19.254Z,14.80
2018-09-15T16:15:47.807Z,14.80
2018-09-15T16:18:16.351Z,14.70
2018-09-15T16:20:44.884Z,14.60
2018-09-15T16:23:13.474Z,14.50
2018-09-15T16:25:42.053Z,14.50
2018-09-15T16:28:11.671Z,14.50
2018-09-15T16:30:40.486Z,14.40
2018-09-15T16:33:08.986Z,14.40
2018-09-15T16:35:37.788Z,14.30
2018-09-15T16:38:06.762Z,14.20
2018-09-15T16:40:35.319Z,14.20
2018-09-15T16:43:03.881Z,14.10
2018-09-15T16:45:32.424Z,14.10
2018-09-15T16:48:00.983Z,14.00
2018-09-15T16:50:29.618Z,13.90
2018-09-15T16:52:58.180Z,13.90
2018-09-15T16:55:26.742Z,13.90
2018-09-15T16:57:55.419Z,13.90
2018-09-15T17:00:24.087Z,13.80
2018-09-15T17:02:52.651Z,13.80
2018-09-15T17:05:21.390Z,13.80
2018-09-15T17:07:49.985Z,13.70
2018-09-15T17:10:18.571Z,13.70
2018-09-15T17:12:47.104Z,13.70
2018-09-15T17:15:15.634Z,13.70
2018-09-15T17:17:44.181Z,13.60
2018-09-15T17:20:12.792Z,13.50
2018-09-15T17:22:41.357Z,13.50
2018-09-15T17:25:10.068Z,13.50
2018-09-15T17:27:38.613Z,13.40
2018-09-15T17:30:07.171Z,13.40
2018-09-15T17:32:35.740Z,13.40
2018-09-15T17:35:04.337Z,13.40
2018-09-15T17:37:32.918Z,13.40
2018-09-15T17:40:01.494Z,13.40
2018-09-15T17:42:30.024Z,13.40
2018-09-15T17:44:58.649Z,13.40
2018-09-15T17:47:27.259Z,13.40
2018-09-15T17:49:55.791Z,13.40
2018-09-15T17:52:24.407Z,13.30
2018-09-15T17:54:53.041Z,13.30
2018-09-15T17:57:21.569Z,13.30
2018-09-15T17:59:50.137Z,13.30
2018-09-15T18:02:18.742Z,13.30
2018-09-15T18:04:47.328Z,13.30
2018-09-15T18:07:15.870Z,13.20
2018-09-15T18:09:45.267Z,13.10
2018-09-15T18:12:13.888Z,13.10
2018-09-15T18:14:42.421Z,13.10
2018-09-15T18:17:10.979Z,13.00
2018-09-15T18:19:39.669Z,12.90
2018-09-15T18:22:08.275Z,12.90
2018-09-15T18:24:36.798Z,12.90
2018-09-15T18:27:05.373Z,12.90
2018-09-15T18:29:33.929Z,12.90
2018-09-15T18:32:02.463Z,12.90
2018-09-15T18:34:31.027Z,12.90
2018-09-15T18:37:01.529Z,12.90
2018-09-15T18:39:30.077Z,12.90
2018-09-15T18:41:58.653Z,12.90
2018-09-15T18:44:27.332Z,13.00
2018-09-15T18:46:55.895Z,13.00
2018-09-15T18:49:24.419Z,13.00
2018-09-15T18:51:52.969Z,13.00
2018-09-15T18:54:21.597Z,13.10
2018-09-15T18:56:50.163Z,13.10
2018-09-15T18:59:18.748Z,13.10
2018-09-15T19:01:47.310Z,13.20
2018-09-15T19:04:15.900Z,13.20
2018-09-15T19:06:44.509Z,13.30
2018-09-15T19:09:13.493Z,13.30
2018-09-15T19:11:42.290Z,13.30
2018-09-15T19:14:10.914Z,13.30
2018-09-15T19:16:39.562Z,13.20
2018-09-15T19:19:08.140Z,13.20
2018-09-15T19:21:36.680Z,13.10
2018-09-15T19:24:05.232Z,13.10
2018-09-15T19:26:33.829Z,13.00
2018-09-15T19:29:03.085Z,12.90
2018-09-15T19:31:31.784Z,12.80
2018-09-15T19:34:00.514Z,12.70
2018-09-15T19:36:29.095Z,12.60
2018-09-15T19:38:57.663Z,12.50
2018-09-15T19:41:26.249Z,12.40
2018-09-15T19:43:54.828Z,12.30
2018-09-15T19:46:23.420Z,12.30
2018-09-15T19:48:51.978Z,12.20
2018-09-15T19:51:21.141Z,12.10
2018-09-15T19:53:49.709Z,12.00
2018-09-15T19:56:18.282Z,12.00
2018-09-15T19:58:46.861Z,11.90
2018-09-15T20:01:15.410Z,11.90
2018-09-15T20:03:44.157Z,11.90
2018-09-15T20:06:12.807Z,11.90
2018-09-15T20:08:41.310Z,11.90
2018-09-15T20:11:09.882Z,11.80
2018-09-15T20:13:38.534Z,11.90
2018-09-15T20:16:06.004Z,11.90
2018-09-15T20:18:33.358Z,12.00
2018-09-15T20:21:01.313Z,12.00
2018-09-15T20:23:29.863Z,12.10
2018-09-15T20:25:58.408Z,12.10
2018-09-15T20:28:27.037Z,12.10
2018-09-15T20:30:55.601Z,12.10
2018-09-15T20:33:24.155Z,12.10
2018-09-15T20:35:52.825Z,12.10
2018-09-15T20:38:21.383Z,12.10
2018-09-15T20:40:50.746Z,12.10
2018-09-15T20:43:19.438Z,12.10
2018-09-15T20:45:48.165Z,12.10
2018-09-15T20:48:16.763Z,12.00
2018-09-15T20:50:45.333Z,12.00
2018-09-15T20:53:13.889Z,11.90
2018-09-15T20:55:42.483Z,11.90
2018-09-15T20:58:11.097Z,11.90
2018-09-15T21:00:39.645Z,11.80
2018-09-15T21:03:08.197Z,11.80
2018-09-15T21:05:36.745Z,11.80
2018-09-15T21:08:05.369Z,11.80
2018-09-15T21:10:33.931Z,11.70
2018-09-15T21:13:03.248Z,11.70
2018-09-15T21:15:31.816Z,11.60
2018-09-15T21:18:00.505Z,11.60
2018-09-15T21:20:29.065Z,11.50
2018-09-15T21:22:57.612Z,11.40
2018-09-15T21:25:26.192Z,11.30
2018-09-15T21:27:54.742Z,11.30
2018-09-15T21:30:23.295Z,11.20
2018-09-15T21:32:51.844Z,11.20
2018-09-15T21:35:20.391Z,11.20
2018-09-15T21:37:48.985Z,11.10
2018-09-15T21:40:17.643Z,11.10
2018-09-15T21:42:46.161Z,11.00
2018-09-15T21:45:14.862Z,10.90
2018-09-15T21:47:43.520Z,10.90
2018-09-15T21:50:12.160Z,10.90
2018-09-15T21:52:40.782Z,10.90
2018-09-15T21:55:09.386Z,10.80
2018-09-15T21:57:37.937Z,10.90
2018-09-15T22:00:08.661Z,10.80
2018-09-15T22:02:37.201Z,10.70
2018-09-15T22:05:06.082Z,10.70
2018-09-15T22:07:34.654Z,10.70
2018-09-15T22:10:03.323Z,10.70
2018-09-15T22:12:31.892Z,10.80
2018-09-15T22:15:00.468Z,10.80
2018-09-15T22:17:29.060Z,10.80
2018-09-15T22:19:57.620Z,10.80
2018-09-15T22:22:26.256Z,10.70
2018-09-15T22:24:54.757Z,10.70
2018-09-15T22:27:23.292Z,10.70
2018-09-15T22:29:51.812Z,10.70
2018-09-15T22:32:20.364Z,10.70
2018-09-15T22:34:48.888Z,10.70
2018-09-15T22:37:17.457Z,10.60
2018-09-15T22:39:46.037Z,10.60
2018-09-15T22:42:14.597Z,10.60
2018-09-15T22:44:43.179Z,10.60
2018-09-15T22:47:11.710Z,10.60
2018-09-15T22:49:40.384Z,10.60
2018-09-15T22:52:09.018Z,10.60
2018-09-15T22:54:37.713Z,10.50
2018-09-15T22:57:06.278Z,10.50
2018-09-15T22:59:41.175Z,10.50
2018-09-15T23:02:10.597Z,10.50
2018-09-15T23:04:39.159Z,10.50
2018-09-15T23:07:07.750Z,10.50
2018-09-15T23:09:36.345Z,10.50
2018-09-15T23:12:04.901Z,10.40
2018-09-15T23:14:33.426Z,10.40
2018-09-15T23:17:02.697Z,10.40
2018-09-15T23:19:31.327Z,10.50
2018-09-15T23:21:59.949Z,10.60
2018-09-15T23:24:28.599Z,10.50
2018-09-15T23:26:57.170Z,10.60
2018-09-15T23:29:25.721Z,10.60
2018-09-15T23:31:54.282Z,10.60
2018-09-15T23:34:22.841Z,10.70
2018-09-15T23:36:51.415Z,10.70
2018-09-15T23:39:20.030Z,10.60
2018-09-15T23:41:48.594Z,10.60
2018-09-15T23:44:17.136Z,10.60
2018-09-15T23:46:45.721Z,10.60
2018-09-15T23:49:14.258Z,10.60
2018-09-15T23:51:42.855Z,10.60
2018-09-15T23:54:11.411Z,10.50
2018-09-15T23:56:39.944Z,10.60
2018-09-15T23:59:08.541Z,10.50
